Terminal Aerodrome Forecast
Issued by NWS

Home | Current Version | Previous Version | Text Only | Print | Product List | Glossary On
Versions: 1 2 3 4 5 6 7 8 9 10 11 12 13 14 15
037
FTUS42 KMLB 201138
TAFSFB
TAF
KSFB 201138Z 2012/2112 19004KT P6SM BKN100 BKN250
     FM201500 21009KT P6SM FEW040 SCT100 BKN250
     FM210000 22005KT P6SM BKN200
     FM210800 19003KT 5SM BR SCT004 BKN008=

USA.gov is the U.S. government's official web portal to all federal, state and local government web resources and services.